sensor_id;sensor_type;location;lat;lon;timestamp;temperature;humidity
67502;SHT30;54349;52.528;19.760;2023-04-03T00:01:28;23.90;44.87
67502;SHT30;54349;52.528;19.760;2023-04-03T00:03:57;23.89;44.77
67502;SHT30;54349;52.528;19.760;2023-04-03T00:06:26;23.90;44.49
67502;SHT30;54349;52.528;19.760;2023-04-03T00:08:56;23.89;44.23
67502;SHT30;54349;52.528;19.760;2023-04-03T00:11:24;23.89;43.98
67502;SHT30;54349;52.528;19.760;2023-04-03T00:13:54;23.88;43.81
67502;SHT30;54349;52.528;19.760;2023-04-03T00:16:22;23.87;43.61
67502;SHT30;54349;52.528;19.760;2023-04-03T00:18:51;23.86;43.45
67502;SHT30;54349;52.528;19.760;2023-04-03T00:21:19;23.82;43.27
67502;SHT30;54349;52.528;19.760;2023-04-03T00:23:47;23.81;43.14
67502;SHT30;54349;52.528;19.760;2023-04-03T00:26:16;23.80;43.04
67502;SHT30;54349;52.528;19.760;2023-04-03T00:28:45;23.77;42.93
67502;SHT30;54349;52.528;19.760;2023-04-03T00:31:15;23.76;42.78
67502;SHT30;54349;52.528;19.760;2023-04-03T00:33:44;23.75;42.66
67502;SHT30;54349;52.528;19.760;2023-04-03T00:36:12;23.72;42.57
67502;SHT30;54349;52.528;19.760;2023-04-03T00:38:41;23.70;42.44
67502;SHT30;54349;52.528;19.760;2023-04-03T00:41:10;23.68;42.32
67502;SHT30;54349;52.528;19.760;2023-04-03T00:43:38;23.66;42.25
67502;SHT30;54349;52.528;19.760;2023-04-03T00:46:07;23.64;42.14
67502;SHT30;54349;52.528;19.760;2023-04-03T00:48:40;23.63;42.05
67502;SHT30;54349;52.528;19.760;2023-04-03T00:51:14;23.61;41.96
67502;SHT30;54349;52.528;19.760;2023-04-03T00:53:51;23.59;41.89
67502;SHT30;54349;52.528;19.760;2023-04-03T00:56:30;23.57;41.82
67502;SHT30;54349;52.528;19.760;2023-04-03T00:59:08;23.54;41.76
67502;SHT30;54349;52.528;19.760;2023-04-03T01:01:44;23.52;41.68
67502;SHT30;54349;52.528;19.760;2023-04-03T01:07:18;23.48;41.59
67502;SHT30;54349;52.528;19.760;2023-04-03T01:09:58;23.46;41.53
67502;SHT30;54349;52.528;19.760;2023-04-03T01:12:32;23.44;41.50
67502;SHT30;54349;52.528;19.760;2023-04-03T01:15:08;23.42;41.43
67502;SHT30;54349;52.528;19.760;2023-04-03T01:18:02;23.40;41.38
67502;SHT30;54349;52.528;19.760;2023-04-03T01:23:30;23.37;41.29
67502;SHT30;54349;52.528;19.760;2023-04-03T01:26:09;23.34;41.20
67502;SHT30;54349;52.528;19.760;2023-04-03T01:28:39;23.33;41.16
67502;SHT30;54349;52.528;19.760;2023-04-03T01:33:47;23.30;41.04
67502;SHT30;54349;52.528;19.760;2023-04-03T01:36:21;23.28;41.01
67502;SHT30;54349;52.528;19.760;2023-04-03T01:38:58;23.26;40.97
67502;SHT30;54349;52.528;19.760;2023-04-03T01:41:28;23.25;40.92
67502;SHT30;54349;52.528;19.760;2023-04-03T01:44:08;23.24;40.87
67502;SHT30;54349;52.528;19.760;2023-04-03T01:46:36;23.22;40.78
67502;SHT30;54349;52.528;19.760;2023-04-03T01:49:05;23.21;40.70
67502;SHT30;54349;52.528;19.760;2023-04-03T01:51:33;23.20;40.68
67502;SHT30;54349;52.528;19.760;2023-04-03T01:54:05;23.20;40.64
67502;SHT30;54349;52.528;19.760;2023-04-03T01:56:33;23.18;40.60
67502;SHT30;54349;52.528;19.760;2023-04-03T01:59:02;23.16;40.60
67502;SHT30;54349;52.528;19.760;2023-04-03T02:01:36;23.14;40.59
67502;SHT30;54349;52.528;19.760;2023-04-03T02:04:04;23.13;40.56
67502;SHT30;54349;52.528;19.760;2023-04-03T02:06:33;23.11;40.52
67502;SHT30;54349;52.528;19.760;2023-04-03T02:09:03;23.10;40.51
67502;SHT30;54349;52.528;19.760;2023-04-03T02:11:32;23.09;40.48
67502;SHT30;54349;52.528;19.760;2023-04-03T02:14:00;23.08;40.42
67502;SHT30;54349;52.528;19.760;2023-04-03T02:16:29;23.06;40.39
67502;SHT30;54349;52.528;19.760;2023-04-03T02:18:58;23.05;40.39
67502;SHT30;54349;52.528;19.760;2023-04-03T02:21:26;23.04;40.33
67502;SHT30;54349;52.528;19.760;2023-04-03T02:23:55;23.03;40.33
67502;SHT30;54349;52.528;19.760;2023-04-03T02:26:24;23.02;40.30
67502;SHT30;54349;52.528;19.760;2023-04-03T02:28:53;23.00;40.26
67502;SHT30;54349;52.528;19.760;2023-04-03T02:31:22;22.99;40.22
67502;SHT30;54349;52.528;19.760;2023-04-03T02:33:52;22.97;40.22
67502;SHT30;54349;52.528;19.760;2023-04-03T02:36:20;22.96;40.19
67502;SHT30;54349;52.528;19.760;2023-04-03T02:38:54;22.94;40.15
67502;SHT30;54349;52.528;19.760;2023-04-03T02:41:24;22.93;40.15
67502;SHT30;54349;52.528;19.760;2023-04-03T02:44:02;22.92;40.10
67502;SHT30;54349;52.528;19.760;2023-04-03T02:46:32;22.91;40.09
67502;SHT30;54349;52.528;19.760;2023-04-03T02:49:02;22.90;40.05
67502;SHT30;54349;52.528;19.760;2023-04-03T02:51:31;22.89;40.01
67502;SHT30;54349;52.528;19.760;2023-04-03T02:54:00;22.88;40.00
67502;SHT30;54349;52.528;19.760;2023-04-03T02:56:30;22.87;40.00
67502;SHT30;54349;52.528;19.760;2023-04-03T02:58:59;22.86;39.94
67502;SHT30;54349;52.528;19.760;2023-04-03T03:01:28;22.84;39.89
67502;SHT30;54349;52.528;19.760;2023-04-03T03:03:59;22.83;39.84
67502;SHT30;54349;52.528;19.760;2023-04-03T03:06:28;22.82;39.81
67502;SHT30;54349;52.528;19.760;2023-04-03T03:08:57;22.81;39.75
67502;SHT30;54349;52.528;19.760;2023-04-03T03:11:29;22.79;39.65
67502;SHT30;54349;52.528;19.760;2023-04-03T03:13:58;22.80;39.55
67502;SHT30;54349;52.528;19.760;2023-04-03T03:16:26;22.77;39.50
67502;SHT30;54349;52.528;19.760;2023-04-03T03:18:56;22.76;39.45
67502;SHT30;54349;52.528;19.760;2023-04-03T03:21:26;22.75;39.39
67502;SHT30;54349;52.528;19.760;2023-04-03T03:23:55;22.74;39.30
67502;SHT30;54349;52.528;19.760;2023-04-03T03:26:23;22.73;39.23
67502;SHT30;54349;52.528;19.760;2023-04-03T03:28:52;22.72;39.20
67502;SHT30;54349;52.528;19.760;2023-04-03T03:31:21;22.71;39.08
67502;SHT30;54349;52.528;19.760;2023-04-03T03:33:49;22.69;39.12
67502;SHT30;54349;52.528;19.760;2023-04-03T03:36:17;22.69;39.10
67502;SHT30;54349;52.528;19.760;2023-04-03T03:38:46;22.67;39.09
67502;SHT30;54349;52.528;19.760;2023-04-03T03:41:14;22.66;39.07
67502;SHT30;54349;52.528;19.760;2023-04-03T03:43:43;22.65;39.07
67502;SHT30;54349;52.528;19.760;2023-04-03T03:46:11;22.64;39.06
67502;SHT30;54349;52.528;19.760;2023-04-03T03:48:40;22.63;39.08
67502;SHT30;54349;52.528;19.760;2023-04-03T03:51:08;22.62;39.06
67502;SHT30;54349;52.528;19.760;2023-04-03T03:53:39;22.61;39.04
67502;SHT30;54349;52.528;19.760;2023-04-03T03:56:11;22.61;39.04
67502;SHT30;54349;52.528;19.760;2023-04-03T03:58:41;22.60;39.01
67502;SHT30;54349;52.528;19.760;2023-04-03T04:01:09;22.58;39.00
67502;SHT30;54349;52.528;19.760;2023-04-03T04:03:41;22.57;39.00
67502;SHT30;54349;52.528;19.760;2023-04-03T04:06:11;22.57;39.00
67502;SHT30;54349;52.528;19.760;2023-04-03T04:08:40;22.56;38.96
67502;SHT30;54349;52.528;19.760;2023-04-03T04:11:10;22.54;38.98
67502;SHT30;54349;52.528;19.760;2023-04-03T04:13:42;22.54;38.96
67502;SHT30;54349;52.528;19.760;2023-04-03T04:16:11;22.53;38.95
67502;SHT30;54349;52.528;19.760;2023-04-03T04:18:41;22.52;38.90
67502;SHT30;54349;52.528;19.760;2023-04-03T04:21:13;22.51;38.89
67502;SHT30;54349;52.528;19.760;2023-04-03T04:23:41;22.49;38.86
67502;SHT30;54349;52.528;19.760;2023-04-03T04:26:11;22.50;38.81
67502;SHT30;54349;52.528;19.760;2023-04-03T04:28:40;22.49;38.82
67502;SHT30;54349;52.528;19.760;2023-04-03T04:31:09;22.49;38.81
67502;SHT30;54349;52.528;19.760;2023-04-03T04:33:38;22.48;38.80
67502;SHT30;54349;52.528;19.760;2023-04-03T04:36:11;22.47;38.80
67502;SHT30;54349;52.528;19.760;2023-04-03T04:38:40;22.46;38.75
67502;SHT30;54349;52.528;19.760;2023-04-03T04:41:11;22.45;38.78
67502;SHT30;54349;52.528;19.760;2023-04-03T04:43:40;22.45;38.76
67502;SHT30;54349;52.528;19.760;2023-04-03T04:46:10;22.43;38.72
67502;SHT30;54349;52.528;19.760;2023-04-03T04:48:46;22.43;38.73
67502;SHT30;54349;52.528;19.760;2023-04-03T04:51:16;22.42;38.70
67502;SHT30;54349;52.528;19.760;2023-04-03T04:53:44;22.41;38.79
67502;SHT30;54349;52.528;19.760;2023-04-03T04:56:14;22.41;38.84
67502;SHT30;54349;52.528;19.760;2023-04-03T04:58:43;22.39;38.91
67502;SHT30;54349;52.528;19.760;2023-04-03T05:01:11;22.39;38.95
67502;SHT30;54349;52.528;19.760;2023-04-03T05:03:47;22.38;38.97
67502;SHT30;54349;52.528;19.760;2023-04-03T05:06:16;22.38;38.93
67502;SHT30;54349;52.528;19.760;2023-04-03T05:08:45;22.36;38.93
67502;SHT30;54349;52.528;19.760;2023-04-03T05:11:14;22.36;38.91
67502;SHT30;54349;52.528;19.760;2023-04-03T05:13:43;22.36;38.90
67502;SHT30;54349;52.528;19.760;2023-04-03T05:16:12;22.36;38.90
67502;SHT30;54349;52.528;19.760;2023-04-03T05:18:41;22.35;39.03
67502;SHT30;54349;52.528;19.760;2023-04-03T05:21:14;22.35;39.72
67502;SHT30;54349;52.528;19.760;2023-04-03T05:23:43;22.36;40.05
67502;SHT30;54349;52.528;19.760;2023-04-03T05:26:14;22.36;40.29
67502;SHT30;54349;52.528;19.760;2023-04-03T05:28:44;22.38;40.53
67502;SHT30;54349;52.528;19.760;2023-04-03T05:31:13;22.39;40.69
67502;SHT30;54349;52.528;19.760;2023-04-03T05:33:43;22.41;40.79
67502;SHT30;54349;52.528;19.760;2023-04-03T05:36:19;22.42;40.95
67502;SHT30;54349;52.528;19.760;2023-04-03T05:38:54;22.45;41.18
67502;SHT30;54349;52.528;19.760;2023-04-03T05:41:28;22.47;41.42
67502;SHT30;54349;52.528;19.760;2023-04-03T05:43:56;22.49;41.54
67502;SHT30;54349;52.528;19.760;2023-04-03T05:46:25;22.52;41.66
67502;SHT30;54349;52.528;19.760;2023-04-03T05:48:57;22.54;41.68
67502;SHT30;54349;52.528;19.760;2023-04-03T05:51:32;22.55;41.75
67502;SHT30;54349;52.528;19.760;2023-04-03T05:54:24;22.58;41.74
67502;SHT30;54349;52.528;19.760;2023-04-03T05:57:03;22.60;41.71
67502;SHT30;54349;52.528;19.760;2023-04-03T05:59:32;22.63;41.69
67502;SHT30;54349;52.528;19.760;2023-04-03T06:02:02;22.64;41.66
67502;SHT30;54349;52.528;19.760;2023-04-03T06:04:33;22.66;41.80
67502;SHT30;54349;52.528;19.760;2023-04-03T06:07:03;22.67;41.72
67502;SHT30;54349;52.528;19.760;2023-04-03T06:09:33;22.69;41.70
67502;SHT30;54349;52.528;19.760;2023-04-03T06:12:06;22.71;41.68
67502;SHT30;54349;52.528;19.760;2023-04-03T06:14:38;22.73;41.66
67502;SHT30;54349;52.528;19.760;2023-04-03T06:17:09;22.75;41.64
67502;SHT30;54349;52.528;19.760;2023-04-03T06:19:41;22.78;41.58
67502;SHT30;54349;52.528;19.760;2023-04-03T06:22:11;22.77;41.88
67502;SHT30;54349;52.528;19.760;2023-04-03T06:24:43;22.75;42.46
67502;SHT30;54349;52.528;19.760;2023-04-03T06:27:14;22.74;42.66
67502;SHT30;54349;52.528;19.760;2023-04-03T06:29:45;22.71;42.92
67502;SHT30;54349;52.528;19.760;2023-04-03T06:32:15;22.72;43.15
67502;SHT30;54349;52.528;19.760;2023-04-03T06:34:46;22.73;43.11
67502;SHT30;54349;52.528;19.760;2023-04-03T06:37:21;22.75;43.15
67502;SHT30;54349;52.528;19.760;2023-04-03T06:39:54;22.77;42.99
67502;SHT30;54349;52.528;19.760;2023-04-03T06:42:28;22.77;42.92
67502;SHT30;54349;52.528;19.760;2023-04-03T06:45:16;22.80;42.81
67502;SHT30;54349;52.528;19.760;2023-04-03T06:47:45;22.81;42.74
67502;SHT30;54349;52.528;19.760;2023-04-03T06:50:16;22.82;42.72
67502;SHT30;54349;52.528;19.760;2023-04-03T06:52:44;22.83;42.66
67502;SHT30;54349;52.528;19.760;2023-04-03T06:55:13;22.84;42.63
67502;SHT30;54349;52.528;19.760;2023-04-03T06:57:42;22.86;42.54
67502;SHT30;54349;52.528;19.760;2023-04-03T07:00:12;22.88;42.40
67502;SHT30;54349;52.528;19.760;2023-04-03T07:02:42;22.89;42.33
67502;SHT30;54349;52.528;19.760;2023-04-03T07:05:11;22.90;42.33
67502;SHT30;54349;52.528;19.760;2023-04-03T07:07:43;22.92;42.31
67502;SHT30;54349;52.528;19.760;2023-04-03T07:10:12;22.93;42.35
67502;SHT30;54349;52.528;19.760;2023-04-03T07:12:40;22.93;42.33
67502;SHT30;54349;52.528;19.760;2023-04-03T07:15:13;22.92;42.34
67502;SHT30;54349;52.528;19.760;2023-04-03T07:17:42;22.91;42.39
67502;SHT30;54349;52.528;19.760;2023-04-03T07:20:10;22.89;42.39
67502;SHT30;54349;52.528;19.760;2023-04-03T07:22:40;22.90;42.39
67502;SHT30;54349;52.528;19.760;2023-04-03T07:25:10;22.89;42.35
67502;SHT30;54349;52.528;19.760;2023-04-03T07:27:38;22.89;42.42
67502;SHT30;54349;52.528;19.760;2023-04-03T07:30:07;22.86;42.54
67502;SHT30;54349;52.528;19.760;2023-04-03T07:32:37;22.84;42.90
67502;SHT30;54349;52.528;19.760;2023-04-03T07:35:06;22.82;43.17
67502;SHT30;54349;52.528;19.760;2023-04-03T07:37:35;22.80;43.30
67502;SHT30;54349;52.528;19.760;2023-04-03T07:40:04;22.77;43.40
67502;SHT30;54349;52.528;19.760;2023-04-03T07:42:34;22.75;43.39
67502;SHT30;54349;52.528;19.760;2023-04-03T07:45:08;22.74;43.47
67502;SHT30;54349;52.528;19.760;2023-04-03T07:47:37;22.74;43.51
67502;SHT30;54349;52.528;19.760;2023-04-03T07:50:06;22.73;43.58
67502;SHT30;54349;52.528;19.760;2023-04-03T07:52:37;22.72;43.60
67502;SHT30;54349;52.528;19.760;2023-04-03T07:55:05;22.72;43.58
67502;SHT30;54349;52.528;19.760;2023-04-03T07:57:34;22.71;43.62
67502;SHT30;54349;52.528;19.760;2023-04-03T08:00:04;22.71;43.75
67502;SHT30;54349;52.528;19.760;2023-04-03T08:02:44;22.71;43.71
67502;SHT30;54349;52.528;19.760;2023-04-03T08:05:21;22.70;43.77
67502;SHT30;54349;52.528;19.760;2023-04-03T08:07:49;22.71;43.91
67502;SHT30;54349;52.528;19.760;2023-04-03T08:10:18;22.71;43.90
67502;SHT30;54349;52.528;19.760;2023-04-03T08:12:47;22.70;43.78
67502;SHT30;54349;52.528;19.760;2023-04-03T08:15:16;22.70;43.70
67502;SHT30;54349;52.528;19.760;2023-04-03T08:17:45;22.69;43.70
67502;SHT30;54349;52.528;19.760;2023-04-03T08:20:13;22.69;43.70
67502;SHT30;54349;52.528;19.760;2023-04-03T08:22:44;22.70;43.71
67502;SHT30;54349;52.528;19.760;2023-04-03T08:25:16;22.69;43.70
67502;SHT30;54349;52.528;19.760;2023-04-03T08:27:48;22.69;43.68
67502;SHT30;54349;52.528;19.760;2023-04-03T08:30:18;22.68;43.70
67502;SHT30;54349;52.528;19.760;2023-04-03T08:32:47;22.69;43.63
67502;SHT30;54349;52.528;19.760;2023-04-03T08:35:15;22.69;43.45
67502;SHT30;54349;52.528;19.760;2023-04-03T08:37:44;22.69;43.38
67502;SHT30;54349;52.528;19.760;2023-04-03T08:40:14;22.69;43.37
67502;SHT30;54349;52.528;19.760;2023-04-03T08:50:58;22.70;43.42
67502;SHT30;54349;52.528;19.760;2023-04-03T08:53:40;22.71;43.50
67502;SHT30;54349;52.528;19.760;2023-04-03T08:56:21;22.72;43.51
67502;SHT30;54349;52.528;19.760;2023-04-03T08:58:57;22.71;43.43
67502;SHT30;54349;52.528;19.760;2023-04-03T09:01:34;22.73;43.40
67502;SHT30;54349;52.528;19.760;2023-04-03T09:04:14;22.73;43.42
67502;SHT30;54349;52.528;19.760;2023-04-03T09:06:50;22.74;43.40
67502;SHT30;54349;52.528;19.760;2023-04-03T09:09:30;22.74;43.41
67502;SHT30;54349;52.528;19.760;2023-04-03T09:17:35;22.76;43.38
67502;SHT30;54349;52.528;19.760;2023-04-03T09:20:38;22.77;43.42
67502;SHT30;54349;52.528;19.760;2023-04-03T09:29:27;22.78;43.45
67502;SHT30;54349;52.528;19.760;2023-04-03T09:32:01;22.78;43.47
67502;SHT30;54349;52.528;19.760;2023-04-03T09:34:46;22.79;43.47
67502;SHT30;54349;52.528;19.760;2023-04-03T09:42:59;22.80;43.40
67502;SHT30;54349;52.528;19.760;2023-04-03T09:45:48;22.80;43.37
67502;SHT30;54349;52.528;19.760;2023-04-03T09:48:24;22.80;43.27
67502;SHT30;54349;52.528;19.760;2023-04-03T09:50:57;22.79;43.19
67502;SHT30;54349;52.528;19.760;2023-04-03T09:53:43;22.80;43.29
67502;SHT30;54349;52.528;19.760;2023-04-03T09:58:42;22.83;43.27
67502;SHT30;54349;52.528;19.760;2023-04-03T10:04:03;22.83;43.17
67502;SHT30;54349;52.528;19.760;2023-04-03T10:06:45;22.85;43.30
67502;SHT30;54349;52.528;19.760;2023-04-03T10:09:20;22.86;43.30
67502;SHT30;54349;52.528;19.760;2023-04-03T10:12:03;22.88;43.40
67502;SHT30;54349;52.528;19.760;2023-04-03T10:14:33;22.89;43.37
67502;SHT30;54349;52.528;19.760;2023-04-03T10:20:48;22.93;43.50
67502;SHT30;54349;52.528;19.760;2023-04-03T10:38:42;22.96;43.05
67502;SHT30;54349;52.528;19.760;2023-04-03T10:44:36;22.99;43.04
67502;SHT30;54349;52.528;19.760;2023-04-03T10:57:03;23.04;43.35
67502;SHT30;54349;52.528;19.760;2023-04-03T10:59:44;23.07;43.44
67502;SHT30;54349;52.528;19.760;2023-04-03T11:02:31;23.08;43.48
67502;SHT30;54349;52.528;19.760;2023-04-03T11:08:33;23.10;43.16
67502;SHT30;54349;52.528;19.760;2023-04-03T11:11:30;23.11;42.92
67502;SHT30;54349;52.528;19.760;2023-04-03T11:14:21;23.12;42.91
67502;SHT30;54349;52.528;19.760;2023-04-03T11:17:02;23.15;42.83
67502;SHT30;54349;52.528;19.760;2023-04-03T11:19:54;23.17;42.84
67502;SHT30;54349;52.528;19.760;2023-04-03T11:22:29;23.16;42.64
67502;SHT30;54349;52.528;19.760;2023-04-03T11:27:44;23.19;42.80
67502;SHT30;54349;52.528;19.760;2023-04-03T11:30:23;23.19;42.89
67502;SHT30;54349;52.528;19.760;2023-04-03T11:38:57;23.23;42.75
67502;SHT30;54349;52.528;19.760;2023-04-03T11:41:42;23.23;42.76
67502;SHT30;54349;52.528;19.760;2023-04-03T11:44:30;23.24;43.04
67502;SHT30;54349;52.528;19.760;2023-04-03T11:47:07;23.29;43.16
67502;SHT30;54349;52.528;19.760;2023-04-03T11:49:59;23.35;43.07
67502;SHT30;54349;52.528;19.760;2023-04-03T12:11:26;23.66;42.09
67502;SHT30;54349;52.528;19.760;2023-04-03T12:22:15;23.77;42.99
67502;SHT30;54349;52.528;19.760;2023-04-03T12:24:52;23.80;42.59
67502;SHT30;54349;52.528;19.760;2023-04-03T12:27:26;23.81;42.31
67502;SHT30;54349;52.528;19.760;2023-04-03T12:41:43;23.94;42.17
67502;SHT30;54349;52.528;19.760;2023-04-03T12:44:47;23.98;42.19
67502;SHT30;54349;52.528;19.760;2023-04-03T12:47:37;24.00;42.12
67502;SHT30;54349;52.528;19.760;2023-04-03T12:50:18;24.03;42.16
67502;SHT30;54349;52.528;19.760;2023-04-03T12:53:00;24.04;41.94
67502;SHT30;54349;52.528;19.760;2023-04-03T12:55:40;24.06;41.84
67502;SHT30;54349;52.528;19.760;2023-04-03T13:01:03;24.11;41.73
67502;SHT30;54349;52.528;19.760;2023-04-03T13:03:40;24.12;41.79
67502;SHT30;54349;52.528;19.760;2023-04-03T13:06:17;24.12;41.94
67502;SHT30;54349;52.528;19.760;2023-04-03T13:09:21;24.14;42.00
67502;SHT30;54349;52.528;19.760;2023-04-03T13:11:51;24.15;42.11
67502;SHT30;54349;52.528;19.760;2023-04-03T13:14:29;24.16;42.18
67502;SHT30;54349;52.528;19.760;2023-04-03T13:16:59;24.14;42.23
67502;SHT30;54349;52.528;19.760;2023-04-03T13:19:38;24.16;42.28
67502;SHT30;54349;52.528;19.760;2023-04-03T13:24:50;24.21;42.28
67502;SHT30;54349;52.528;19.760;2023-04-03T13:27:20;24.21;42.30
67502;SHT30;54349;52.528;19.760;2023-04-03T13:29:50;24.21;42.35
67502;SHT30;54349;52.528;19.760;2023-04-03T13:32:23;24.20;42.42
67502;SHT30;54349;52.528;19.760;2023-04-03T13:34:56;24.22;42.46
67502;SHT30;54349;52.528;19.760;2023-04-03T13:37:56;24.23;42.45
67502;SHT30;54349;52.528;19.760;2023-04-03T13:40:28;24.23;42.46
67502;SHT30;54349;52.528;19.760;2023-04-03T13:43:18;24.26;42.22
67502;SHT30;54349;52.528;19.760;2023-04-03T13:46:05;24.28;42.21
67502;SHT30;54349;52.528;19.760;2023-04-03T13:48:44;24.29;41.84
67502;SHT30;54349;52.528;19.760;2023-04-03T13:51:21;24.30;41.73
67502;SHT30;54349;52.528;19.760;2023-04-03T13:53:55;24.31;41.65
67502;SHT30;54349;52.528;19.760;2023-04-03T13:56:34;24.33;41.78
67502;SHT30;54349;52.528;19.760;2023-04-03T14:04:32;24.38;41.02
67502;SHT30;54349;52.528;19.760;2023-04-03T14:07:03;24.38;40.74
67502;SHT30;54349;52.528;19.760;2023-04-03T14:09:35;24.38;40.33
67502;SHT30;54349;52.528;19.760;2023-04-03T14:12:07;24.38;40.18
67502;SHT30;54349;52.528;19.760;2023-04-03T14:15:00;24.37;40.02
67502;SHT30;54349;52.528;19.760;2023-04-03T14:17:34;24.37;39.84
67502;SHT30;54349;52.528;19.760;2023-04-03T14:20:05;24.35;39.82
67502;SHT30;54349;52.528;19.760;2023-04-03T14:22:35;24.34;39.86
67502;SHT30;54349;52.528;19.760;2023-04-03T14:25:04;24.32;39.93
67502;SHT30;54349;52.528;19.760;2023-04-03T14:27:36;24.32;39.86
67502;SHT30;54349;52.528;19.760;2023-04-03T14:30:15;24.31;39.72
67502;SHT30;54349;52.528;19.760;2023-04-03T14:33:01;24.29;39.44
67502;SHT30;54349;52.528;19.760;2023-04-03T14:35:30;24.28;39.24
67502;SHT30;54349;52.528;19.760;2023-04-03T14:37:59;24.26;39.25
67502;SHT30;54349;52.528;19.760;2023-04-03T14:40:28;24.23;39.25
67502;SHT30;54349;52.528;19.760;2023-04-03T14:42:56;24.22;39.15
67502;SHT30;54349;52.528;19.760;2023-04-03T14:45:25;24.18;39.12
67502;SHT30;54349;52.528;19.760;2023-04-03T14:47:54;24.17;39.03
67502;SHT30;54349;52.528;19.760;2023-04-03T14:50:25;24.16;38.96
67502;SHT30;54349;52.528;19.760;2023-04-03T14:52:56;24.14;38.90
67502;SHT30;54349;52.528;19.760;2023-04-03T14:55:27;24.12;38.89
67502;SHT30;54349;52.528;19.760;2023-04-03T14:57:56;24.10;38.87
67502;SHT30;54349;52.528;19.760;2023-04-03T15:00:24;24.09;38.77
67502;SHT30;54349;52.528;19.760;2023-04-03T15:02:53;24.07;38.69
67502;SHT30;54349;52.528;19.760;2023-04-03T15:05:25;24.05;38.56
67502;SHT30;54349;52.528;19.760;2023-04-03T15:07:55;24.04;38.48
67502;SHT30;54349;52.528;19.760;2023-04-03T15:10:26;24.02;38.47
67502;SHT30;54349;52.528;19.760;2023-04-03T15:12:58;24.00;38.29
67502;SHT30;54349;52.528;19.760;2023-04-03T15:15:28;23.98;38.21
67502;SHT30;54349;52.528;19.760;2023-04-03T15:17:57;23.95;38.15
67502;SHT30;54349;52.528;19.760;2023-04-03T15:20:27;23.94;38.16
67502;SHT30;54349;52.528;19.760;2023-04-03T15:22:59;23.91;38.11
67502;SHT30;54349;52.528;19.760;2023-04-03T15:25:29;23.89;38.06
67502;SHT30;54349;52.528;19.760;2023-04-03T15:27:59;23.87;38.04
67502;SHT30;54349;52.528;19.760;2023-04-03T15:30:28;23.85;37.99
67502;SHT30;54349;52.528;19.760;2023-04-03T15:32:56;23.84;37.99
67502;SHT30;54349;52.528;19.760;2023-04-03T15:35:25;23.82;37.98
67502;SHT30;54349;52.528;19.760;2023-04-03T15:37:53;23.80;38.00
67502;SHT30;54349;52.528;19.760;2023-04-03T15:40:22;23.78;37.97
67502;SHT30;54349;52.528;19.760;2023-04-03T15:42:52;23.76;37.85
67502;SHT30;54349;52.528;19.760;2023-04-03T15:45:21;23.75;37.88
67502;SHT30;54349;52.528;19.760;2023-04-03T15:47:50;23.73;37.82
67502;SHT30;54349;52.528;19.760;2023-04-03T15:50:19;23.71;37.78
67502;SHT30;54349;52.528;19.760;2023-04-03T15:52:53;23.70;37.76
67502;SHT30;54349;52.528;19.760;2023-04-03T15:55:23;23.68;37.81
67502;SHT30;54349;52.528;19.760;2023-04-03T15:57:57;23.66;37.87
67502;SHT30;54349;52.528;19.760;2023-04-03T16:00:26;23.64;37.85
67502;SHT30;54349;52.528;19.760;2023-04-03T16:02:57;23.62;38.49
67502;SHT30;54349;52.528;19.760;2023-04-03T16:05:34;23.62;39.29
67502;SHT30;54349;52.528;19.760;2023-04-03T16:08:05;23.62;39.66
67502;SHT30;54349;52.528;19.760;2023-04-03T16:10:36;23.62;39.87
67502;SHT30;54349;52.528;19.760;2023-04-03T16:13:05;23.63;40.12
67502;SHT30;54349;52.528;19.760;2023-04-03T16:15:34;23.63;40.15
67502;SHT30;54349;52.528;19.760;2023-04-03T16:18:04;23.62;40.28
67502;SHT30;54349;52.528;19.760;2023-04-03T16:20:34;23.63;40.30
67502;SHT30;54349;52.528;19.760;2023-04-03T16:23:03;23.64;40.36
67502;SHT30;54349;52.528;19.760;2023-04-03T16:25:32;23.63;40.40
67502;SHT30;54349;52.528;19.760;2023-04-03T16:28:00;23.64;40.42
67502;SHT30;54349;52.528;19.760;2023-04-03T16:30:28;23.64;40.49
67502;SHT30;54349;52.528;19.760;2023-04-03T16:32:57;23.64;40.51
67502;SHT30;54349;52.528;19.760;2023-04-03T16:35:27;23.65;40.59
67502;SHT30;54349;52.528;19.760;2023-04-03T16:37:55;23.64;40.60
67502;SHT30;54349;52.528;19.760;2023-04-03T16:40:24;23.63;40.55
67502;SHT30;54349;52.528;19.760;2023-04-03T16:42:53;23.62;40.43
67502;SHT30;54349;52.528;19.760;2023-04-03T16:45:21;23.62;40.47
67502;SHT30;54349;52.528;19.760;2023-04-03T16:47:50;23.62;40.51
67502;SHT30;54349;52.528;19.760;2023-04-03T16:50:19;23.59;40.57
67502;SHT30;54349;52.528;19.760;2023-04-03T16:52:47;23.59;40.60
67502;SHT30;54349;52.528;19.760;2023-04-03T16:55:16;23.58;40.64
67502;SHT30;54349;52.528;19.760;2023-04-03T16:57:44;23.56;40.59
67502;SHT30;54349;52.528;19.760;2023-04-03T17:00:17;23.55;40.74
67502;SHT30;54349;52.528;19.760;2023-04-03T17:02:46;23.54;40.90
67502;SHT30;54349;52.528;19.760;2023-04-03T17:05:15;23.53;40.92
67502;SHT30;54349;52.528;19.760;2023-04-03T17:07:45;23.53;41.07
67502;SHT30;54349;52.528;19.760;2023-04-03T17:10:13;23.52;40.78
67502;SHT30;54349;52.528;19.760;2023-04-03T17:12:43;23.50;40.66
67502;SHT30;54349;52.528;19.760;2023-04-03T17:15:12;23.48;40.68
67502;SHT30;54349;52.528;19.760;2023-04-03T17:17:40;23.45;40.47
67502;SHT30;54349;52.528;19.760;2023-04-03T17:20:09;23.44;40.65
67502;SHT30;54349;52.528;19.760;2023-04-03T17:22:39;23.43;40.70
67502;SHT30;54349;52.528;19.760;2023-04-03T17:25:08;23.43;40.60
67502;SHT30;54349;52.528;19.760;2023-04-03T17:27:38;23.42;40.49
67502;SHT30;54349;52.528;19.760;2023-04-03T17:30:06;23.42;40.31
67502;SHT30;54349;52.528;19.760;2023-04-03T17:32:35;23.39;40.17
67502;SHT30;54349;52.528;19.760;2023-04-03T17:35:05;23.37;40.10
67502;SHT30;54349;52.528;19.760;2023-04-03T17:37:37;23.34;39.95
67502;SHT30;54349;52.528;19.760;2023-04-03T17:40:06;23.31;39.88
67502;SHT30;54349;52.528;19.760;2023-04-03T17:42:36;23.30;39.66
67502;SHT30;54349;52.528;19.760;2023-04-03T17:45:04;23.26;39.59
67502;SHT30;54349;52.528;19.760;2023-04-03T17:47:34;23.23;39.54
67502;SHT30;54349;52.528;19.760;2023-04-03T17:50:03;23.21;39.49
67502;SHT30;54349;52.528;19.760;2023-04-03T17:52:32;23.19;39.43
67502;SHT30;54349;52.528;19.760;2023-04-03T17:55:01;23.16;39.34
67502;SHT30;54349;52.528;19.760;2023-04-03T17:57:31;23.13;39.35
67502;SHT30;54349;52.528;19.760;2023-04-03T17:59:59;23.11;39.32